sensor_id;sensor_type;location;lat;lon;timestamp;temperature;humidity
17619;DHT22;8928;51.678;6.074;2022-11-20T00:00:16;-3.70;99.90
17619;DHT22;8928;51.678;6.074;2022-11-20T00:03:04;-3.70;99.90
17619;DHT22;8928;51.678;6.074;2022-11-20T00:05:51;-3.70;99.90
17619;DHT22;8928;51.678;6.074;2022-11-20T00:08:38;-3.70;99.90
17619;DHT22;8928;51.678;6.074;2022-11-20T00:11:27;-3.70;99.90
17619;DHT22;8928;51.678;6.074;2022-11-20T00:14:14;-3.70;99.90
17619;DHT22;8928;51.678;6.074;2022-11-20T00:17:01;-3.70;99.90
17619;DHT22;8928;51.678;6.074;2022-11-20T00:19:51;-3.80;99.90
17619;DHT22;8928;51.678;6.074;2022-11-20T00:22:38;-3.80;99.90
17619;DHT22;8928;51.678;6.074;2022-11-20T00:25:25;-3.80;99.90
17619;DHT22;8928;51.678;6.074;2022-11-20T00:28:12;-3.80;99.90
17619;DHT22;8928;51.678;6.074;2022-11-20T00:31:02;-3.80;99.90
17619;DHT22;8928;51.678;6.074;2022-11-20T00:33:50;-3.80;99.90
17619;DHT22;8928;51.678;6.074;2022-11-20T00:36:38;-3.80;99.90
17619;DHT22;8928;51.678;6.074;2022-11-20T00:39:26;-3.80;99.90
17619;DHT22;8928;51.678;6.074;2022-11-20T00:42:13;-3.80;99.90
17619;DHT22;8928;51.678;6.074;2022-11-20T00:45:00;-3.80;99.90
17619;DHT22;8928;51.678;6.074;2022-11-20T00:47:47;-3.80;99.90
17619;DHT22;8928;51.678;6.074;2022-11-20T00:50:34;-3.80;99.90
17619;DHT22;8928;51.678;6.074;2022-11-20T00:53:22;-3.80;99.90
17619;DHT22;8928;51.678;6.074;2022-11-20T00:56:11;-3.90;99.90
17619;DHT22;8928;51.678;6.074;2022-11-20T00:59:00;-3.90;99.90
17619;DHT22;8928;51.678;6.074;2022-11-20T01:01:47;-4.00;99.90
17619;DHT22;8928;51.678;6.074;2022-11-20T01:04:34;-4.00;99.90
17619;DHT22;8928;51.678;6.074;2022-11-20T01:07:21;-4.00;99.90
17619;DHT22;8928;51.678;6.074;2022-11-20T01:10:10;-4.00;99.90
17619;DHT22;8928;51.678;6.074;2022-11-20T01:12:57;-3.90;99.90
17619;DHT22;8928;51.678;6.074;2022-11-20T01:16:02;-3.90;99.90
17619;DHT22;8928;51.678;6.074;2022-11-20T01:18:51;-4.00;99.90
17619;DHT22;8928;51.678;6.074;2022-11-20T01:21:40;-3.90;99.90
17619;DHT22;8928;51.678;6.074;2022-11-20T01:24:27;-3.90;99.90
17619;DHT22;8928;51.678;6.074;2022-11-20T01:27:15;-3.90;99.90
17619;DHT22;8928;51.678;6.074;2022-11-20T01:30:03;-3.90;99.90
17619;DHT22;8928;51.678;6.074;2022-11-20T01:32:50;-4.00;99.90
17619;DHT22;8928;51.678;6.074;2022-11-20T01:35:37;-4.00;99.90
17619;DHT22;8928;51.678;6.074;2022-11-20T01:38:24;-4.00;99.90
17619;DHT22;8928;51.678;6.074;2022-11-20T01:41:12;-4.10;99.90
17619;DHT22;8928;51.678;6.074;2022-11-20T01:44:51;-4.10;99.90
17619;DHT22;8928;51.678;6.074;2022-11-20T01:47:40;-4.10;99.90
17619;DHT22;8928;51.678;6.074;2022-11-20T01:50:29;-4.10;99.90
17619;DHT22;8928;51.678;6.074;2022-11-20T01:53:18;-4.20;99.90
17619;DHT22;8928;51.678;6.074;2022-11-20T01:56:10;-4.20;99.90
17619;DHT22;8928;51.678;6.074;2022-11-20T01:58:59;-4.20;99.90
17619;DHT22;8928;51.678;6.074;2022-11-20T02:01:49;-4.20;99.90
17619;DHT22;8928;51.678;6.074;2022-11-20T02:04:36;-4.20;99.90
17619;DHT22;8928;51.678;6.074;2022-11-20T02:07:23;-4.20;99.90
17619;DHT22;8928;51.678;6.074;2022-11-20T02:10:11;-4.20;99.90
17619;DHT22;8928;51.678;6.074;2022-11-20T02:12:58;-4.20;99.90
17619;DHT22;8928;51.678;6.074;2022-11-20T02:16:03;-4.30;99.90
17619;DHT22;8928;51.678;6.074;2022-11-20T02:18:54;-4.40;99.90
17619;DHT22;8928;51.678;6.074;2022-11-20T02:21:46;-4.40;99.90
17619;DHT22;8928;51.678;6.074;2022-11-20T02:24:37;-4.40;99.90
17619;DHT22;8928;51.678;6.074;2022-11-20T02:27:24;-4.40;99.90
17619;DHT22;8928;51.678;6.074;2022-11-20T02:30:12;-4.40;99.90
17619;DHT22;8928;51.678;6.074;2022-11-20T02:32:59;-4.40;99.90
17619;DHT22;8928;51.678;6.074;2022-11-20T02:35:46;-4.30;99.90
17619;DHT22;8928;51.678;6.074;2022-11-20T02:38:34;-4.40;99.90
17619;DHT22;8928;51.678;6.074;2022-11-20T02:41:30;-4.50;99.90
17619;DHT22;8928;51.678;6.074;2022-11-20T02:44:17;-4.50;99.90
17619;DHT22;8928;51.678;6.074;2022-11-20T02:47:04;-4.50;99.90
17619;DHT22;8928;51.678;6.074;2022-11-20T02:49:51;-4.50;99.90
17619;DHT22;8928;51.678;6.074;2022-11-20T02:52:38;-4.50;99.90
17619;DHT22;8928;51.678;6.074;2022-11-20T02:55:25;-4.50;99.90
17619;DHT22;8928;51.678;6.074;2022-11-20T02:58:13;-4.50;99.90
17619;DHT22;8928;51.678;6.074;2022-11-20T03:01:00;-4.50;99.90
17619;DHT22;8928;51.678;6.074;2022-11-20T03:03:48;-4.60;99.90
17619;DHT22;8928;51.678;6.074;2022-11-20T03:06:35;-4.60;99.90
17619;DHT22;8928;51.678;6.074;2022-11-20T03:09:22;-4.60;99.90
17619;DHT22;8928;51.678;6.074;2022-11-20T03:12:09;-4.60;99.90
17619;DHT22;8928;51.678;6.074;2022-11-20T03:14:57;-4.70;99.90
17619;DHT22;8928;51.678;6.074;2022-11-20T03:17:44;-4.70;99.90
17619;DHT22;8928;51.678;6.074;2022-11-20T03:20:32;-4.60;99.90
17619;DHT22;8928;51.678;6.074;2022-11-20T03:23:20;-4.70;99.90
17619;DHT22;8928;51.678;6.074;2022-11-20T03:26:08;-4.70;99.90
17619;DHT22;8928;51.678;6.074;2022-11-20T03:28:56;-4.80;99.90
17619;DHT22;8928;51.678;6.074;2022-11-20T03:31:45;-4.80;99.90
17619;DHT22;8928;51.678;6.074;2022-11-20T03:34:32;-4.80;99.90
17619;DHT22;8928;51.678;6.074;2022-11-20T03:37:19;-4.70;99.90
17619;DHT22;8928;51.678;6.074;2022-11-20T03:40:07;-4.70;99.90
17619;DHT22;8928;51.678;6.074;2022-11-20T03:42:54;-4.70;99.90
17619;DHT22;8928;51.678;6.074;2022-11-20T03:45:41;-4.70;99.90
17619;DHT22;8928;51.678;6.074;2022-11-20T03:48:30;-4.70;99.90
17619;DHT22;8928;51.678;6.074;2022-11-20T03:51:18;-4.80;99.90
17619;DHT22;8928;51.678;6.074;2022-11-20T03:54:07;-4.80;99.90
17619;DHT22;8928;51.678;6.074;2022-11-20T03:56:54;-4.90;99.90
17619;DHT22;8928;51.678;6.074;2022-11-20T03:59:41;-4.90;99.90
17619;DHT22;8928;51.678;6.074;2022-11-20T04:02:28;-5.00;99.90
17619;DHT22;8928;51.678;6.074;2022-11-20T04:05:17;-5.00;99.90
17619;DHT22;8928;51.678;6.074;2022-11-20T04:08:04;-5.10;99.90
17619;DHT22;8928;51.678;6.074;2022-11-20T04:10:51;-5.10;99.90
17619;DHT22;8928;51.678;6.074;2022-11-20T04:13:39;-5.00;99.90
17619;DHT22;8928;51.678;6.074;2022-11-20T04:16:29;-5.10;99.90
17619;DHT22;8928;51.678;6.074;2022-11-20T04:19:16;-5.00;99.90
17619;DHT22;8928;51.678;6.074;2022-11-20T04:22:04;-5.10;99.90
17619;DHT22;8928;51.678;6.074;2022-11-20T04:24:51;-5.10;99.90
17619;DHT22;8928;51.678;6.074;2022-11-20T04:27:38;-5.10;99.90
17619;DHT22;8928;51.678;6.074;2022-11-20T04:30:26;-5.10;99.90
17619;DHT22;8928;51.678;6.074;2022-11-20T04:33:13;-5.10;99.90
17619;DHT22;8928;51.678;6.074;2022-11-20T04:36:02;-5.10;99.90
17619;DHT22;8928;51.678;6.074;2022-11-20T04:38:52;-5.10;99.90
17619;DHT22;8928;51.678;6.074;2022-11-20T04:41:39;-5.10;99.90
17619;DHT22;8928;51.678;6.074;2022-11-20T04:44:26;-5.10;99.90
17619;DHT22;8928;51.678;6.074;2022-11-20T04:47:13;-5.20;99.90
17619;DHT22;8928;51.678;6.074;2022-11-20T04:50:00;-5.10;99.90
17619;DHT22;8928;51.678;6.074;2022-11-20T04:52:47;-5.10;99.90
17619;DHT22;8928;51.678;6.074;2022-11-20T04:55:36;-5.10;99.90
17619;DHT22;8928;51.678;6.074;2022-11-20T04:58:23;-5.10;99.90
17619;DHT22;8928;51.678;6.074;2022-11-20T05:01:11;-5.10;99.90
17619;DHT22;8928;51.678;6.074;2022-11-20T05:03:58;-5.10;99.90
17619;DHT22;8928;51.678;6.074;2022-11-20T05:06:45;-5.00;99.90
17619;DHT22;8928;51.678;6.074;2022-11-20T05:09:32;-5.00;99.90
17619;DHT22;8928;51.678;6.074;2022-11-20T05:12:21;-5.00;99.90
17619;DHT22;8928;51.678;6.074;2022-11-20T05:15:09;-5.00;99.90
17619;DHT22;8928;51.678;6.074;2022-11-20T05:17:56;-5.00;99.90
17619;DHT22;8928;51.678;6.074;2022-11-20T05:20:43;-5.10;99.90
17619;DHT22;8928;51.678;6.074;2022-11-20T05:23:30;-5.10;99.90
17619;DHT22;8928;51.678;6.074;2022-11-20T05:26:19;-5.10;99.90
17619;DHT22;8928;51.678;6.074;2022-11-20T05:29:10;-5.20;99.90
17619;DHT22;8928;51.678;6.074;2022-11-20T05:31:57;-5.20;99.90
17619;DHT22;8928;51.678;6.074;2022-11-20T05:34:44;-5.20;99.90
17619;DHT22;8928;51.678;6.074;2022-11-20T05:37:31;-5.30;99.90
17619;DHT22;8928;51.678;6.074;2022-11-20T05:40:18;-5.30;99.90
17619;DHT22;8928;51.678;6.074;2022-11-20T05:43:05;-5.30;99.90
17619;DHT22;8928;51.678;6.074;2022-11-20T05:45:54;-5.30;99.90
17619;DHT22;8928;51.678;6.074;2022-11-20T05:48:42;-5.40;99.90
17619;DHT22;8928;51.678;6.074;2022-11-20T05:51:29;-5.40;99.90
17619;DHT22;8928;51.678;6.074;2022-11-20T05:54:16;-5.50;99.90
17619;DHT22;8928;51.678;6.074;2022-11-20T05:57:03;-5.50;99.90
17619;DHT22;8928;51.678;6.074;2022-11-20T05:59:50;-5.50;99.90
17619;DHT22;8928;51.678;6.074;2022-11-20T06:02:39;-5.40;99.90
17619;DHT22;8928;51.678;6.074;2022-11-20T06:05:26;-5.40;99.90
17619;DHT22;8928;51.678;6.074;2022-11-20T06:08:13;-5.40;99.90
17619;DHT22;8928;51.678;6.074;2022-11-20T06:11:03;-5.40;99.90
17619;DHT22;8928;51.678;6.074;2022-11-20T06:13:51;-5.40;99.90
17619;DHT22;8928;51.678;6.074;2022-11-20T06:16:38;-5.30;99.90
17619;DHT22;8928;51.678;6.074;2022-11-20T06:19:26;-5.30;99.90
17619;DHT22;8928;51.678;6.074;2022-11-20T06:22:13;-5.30;99.90
17619;DHT22;8928;51.678;6.074;2022-11-20T06:25:00;-5.30;99.90
17619;DHT22;8928;51.678;6.074;2022-11-20T06:27:47;-5.40;99.90
17619;DHT22;8928;51.678;6.074;2022-11-20T06:30:35;-5.40;99.90
17619;DHT22;8928;51.678;6.074;2022-11-20T06:33:22;-5.40;99.90
17619;DHT22;8928;51.678;6.074;2022-11-20T06:36:11;-5.40;99.90
17619;DHT22;8928;51.678;6.074;2022-11-20T06:38:58;-5.40;99.90
17619;DHT22;8928;51.678;6.074;2022-11-20T06:41:45;-5.40;99.90
17619;DHT22;8928;51.678;6.074;2022-11-20T06:44:32;-5.40;99.90
17619;DHT22;8928;51.678;6.074;2022-11-20T06:47:19;-5.40;99.90
17619;DHT22;8928;51.678;6.074;2022-11-20T06:50:07;-5.40;99.90
17619;DHT22;8928;51.678;6.074;2022-11-20T06:52:55;-5.40;99.90
17619;DHT22;8928;51.678;6.074;2022-11-20T06:55:43;-5.40;99.90
17619;DHT22;8928;51.678;6.074;2022-11-20T06:58:31;-5.40;99.90
17619;DHT22;8928;51.678;6.074;2022-11-20T07:01:19;-5.40;99.90
17619;DHT22;8928;51.678;6.074;2022-11-20T07:04:06;-5.40;99.90
17619;DHT22;8928;51.678;6.074;2022-11-20T07:06:53;-5.40;99.90
17619;DHT22;8928;51.678;6.074;2022-11-20T07:09:41;-5.40;99.90
17619;DHT22;8928;51.678;6.074;2022-11-20T07:12:28;-5.30;99.90
17619;DHT22;8928;51.678;6.074;2022-11-20T07:15:15;-5.30;99.90
17619;DHT22;8928;51.678;6.074;2022-11-20T07:18:02;-5.30;99.90
17619;DHT22;8928;51.678;6.074;2022-11-20T07:20:49;-5.30;99.90
17619;DHT22;8928;51.678;6.074;2022-11-20T07:23:37;-5.30;99.90
17619;DHT22;8928;51.678;6.074;2022-11-20T07:26:25;-5.30;99.90
17619;DHT22;8928;51.678;6.074;2022-11-20T07:29:12;-5.10;99.90
17619;DHT22;8928;51.678;6.074;2022-11-20T07:31:59;-5.10;99.90
17619;DHT22;8928;51.678;6.074;2022-11-20T07:34:46;-5.00;99.90
17619;DHT22;8928;51.678;6.074;2022-11-20T07:37:34;-4.90;99.90
17619;DHT22;8928;51.678;6.074;2022-11-20T07:40:21;-4.90;99.90
17619;DHT22;8928;51.678;6.074;2022-11-20T07:43:09;-4.80;99.90
17619;DHT22;8928;51.678;6.074;2022-11-20T07:45:57;-4.70;99.90
17619;DHT22;8928;51.678;6.074;2022-11-20T07:48:44;-4.70;99.90
17619;DHT22;8928;51.678;6.074;2022-11-20T07:51:31;-4.60;99.90
17619;DHT22;8928;51.678;6.074;2022-11-20T07:54:18;-4.50;99.90
17619;DHT22;8928;51.678;6.074;2022-11-20T07:57:05;-4.40;99.90
17619;DHT22;8928;51.678;6.074;2022-11-20T07:59:53;-4.40;99.90
17619;DHT22;8928;51.678;6.074;2022-11-20T08:02:41;-4.30;99.90
17619;DHT22;8928;51.678;6.074;2022-11-20T08:05:28;-4.20;99.90
17619;DHT22;8928;51.678;6.074;2022-11-20T08:08:15;-4.20;99.90
17619;DHT22;8928;51.678;6.074;2022-11-20T08:11:02;-4.10;99.90
17619;DHT22;8928;51.678;6.074;2022-11-20T08:14:06;-4.00;99.90
17619;DHT22;8928;51.678;6.074;2022-11-20T08:17:00;-3.90;99.90
17619;DHT22;8928;51.678;6.074;2022-11-20T08:19:47;-3.70;99.90
17619;DHT22;8928;51.678;6.074;2022-11-20T08:22:35;-3.70;99.90
17619;DHT22;8928;51.678;6.074;2022-11-20T08:25:22;-3.50;99.90
17619;DHT22;8928;51.678;6.074;2022-11-20T08:28:09;-3.40;99.90
17619;DHT22;8928;51.678;6.074;2022-11-20T08:30:58;-3.20;99.90
17619;DHT22;8928;51.678;6.074;2022-11-20T08:33:47;-3.10;99.90
17619;DHT22;8928;51.678;6.074;2022-11-20T08:36:34;-2.90;99.90
17619;DHT22;8928;51.678;6.074;2022-11-20T08:39:21;-2.70;99.90
17619;DHT22;8928;51.678;6.074;2022-11-20T08:42:08;-2.50;99.90
17619;DHT22;8928;51.678;6.074;2022-11-20T08:44:55;-2.20;99.90
17619;DHT22;8928;51.678;6.074;2022-11-20T08:47:42;-1.90;99.90
17619;DHT22;8928;51.678;6.074;2022-11-20T08:50:31;-1.70;99.90
17619;DHT22;8928;51.678;6.074;2022-11-20T08:53:19;-1.50;99.90
17619;DHT22;8928;51.678;6.074;2022-11-20T08:56:06;-1.30;99.90
17619;DHT22;8928;51.678;6.074;2022-11-20T08:58:55;-1.00;99.90
17619;DHT22;8928;51.678;6.074;2022-11-20T09:01:42;-0.80;99.90
17619;DHT22;8928;51.678;6.074;2022-11-20T09:04:29;-0.60;99.90
17619;DHT22;8928;51.678;6.074;2022-11-20T09:07:18;-0.30;99.90
17619;DHT22;8928;51.678;6.074;2022-11-20T09:10:05;-0.10;99.90
17619;DHT22;8928;51.678;6.074;2022-11-20T09:12:54;0.00;99.90
17619;DHT22;8928;51.678;6.074;2022-11-20T09:15:41;0.10;99.90
17619;DHT22;8928;51.678;6.074;2022-11-20T09:18:29;0.10;99.90
17619;DHT22;8928;51.678;6.074;2022-11-20T09:21:17;0.10;99.90
17619;DHT22;8928;51.678;6.074;2022-11-20T09:24:06;0.20;99.90
17619;DHT22;8928;51.678;6.074;2022-11-20T09:26:53;0.10;99.90
17619;DHT22;8928;51.678;6.074;2022-11-20T09:29:40;0.20;99.90
17619;DHT22;8928;51.678;6.074;2022-11-20T09:32:27;0.30;99.90
17619;DHT22;8928;51.678;6.074;2022-11-20T09:35:14;0.30;99.90
17619;DHT22;8928;51.678;6.074;2022-11-20T09:38:05;0.40;99.90
17619;DHT22;8928;51.678;6.074;2022-11-20T09:40:57;0.50;99.90
17619;DHT22;8928;51.678;6.074;2022-11-20T09:43:50;0.60;99.90
17619;DHT22;8928;51.678;6.074;2022-11-20T09:46:47;0.60;99.90
17619;DHT22;8928;51.678;6.074;2022-11-20T09:49:51;0.70;99.90
17619;DHT22;8928;51.678;6.074;2022-11-20T09:52:51;0.80;99.90
17619;DHT22;8928;51.678;6.074;2022-11-20T09:55:42;1.00;99.90
17619;DHT22;8928;51.678;6.074;2022-11-20T09:58:33;1.00;99.90
17619;DHT22;8928;51.678;6.074;2022-11-20T10:01:26;1.10;99.90
17619;DHT22;8928;51.678;6.074;2022-11-20T10:04:16;1.20;99.90
17619;DHT22;8928;51.678;6.074;2022-11-20T10:07:11;1.40;99.90
17619;DHT22;8928;51.678;6.074;2022-11-20T10:09:59;1.50;99.90
17619;DHT22;8928;51.678;6.074;2022-11-20T10:12:57;1.60;99.90
17619;DHT22;8928;51.678;6.074;2022-11-20T10:15:57;1.60;99.90
17619;DHT22;8928;51.678;6.074;2022-11-20T10:18:56;1.70;99.90
17619;DHT22;8928;51.678;6.074;2022-11-20T10:21:55;1.80;99.90
17619;DHT22;8928;51.678;6.074;2022-11-20T10:24:51;1.90;99.90
17619;DHT22;8928;51.678;6.074;2022-11-20T10:27:48;1.90;99.90
17619;DHT22;8928;51.678;6.074;2022-11-20T10:30:42;2.00;99.90
17619;DHT22;8928;51.678;6.074;2022-11-20T10:33:34;2.20;99.90
17619;DHT22;8928;51.678;6.074;2022-11-20T10:36:25;2.20;99.90
17619;DHT22;8928;51.678;6.074;2022-11-20T10:39:18;2.40;99.90
17619;DHT22;8928;51.678;6.074;2022-11-20T10:42:11;2.40;99.90
17619;DHT22;8928;51.678;6.074;2022-11-20T10:45:13;2.60;99.90
17619;DHT22;8928;51.678;6.074;2022-11-20T10:48:14;2.80;99.90
17619;DHT22;8928;51.678;6.074;2022-11-20T10:51:13;2.90;99.90
17619;DHT22;8928;51.678;6.074;2022-11-20T10:54:12;3.00;99.90
17619;DHT22;8928;51.678;6.074;2022-11-20T10:57:10;3.00;99.90
17619;DHT22;8928;51.678;6.074;2022-11-20T11:00:05;3.00;99.90
17619;DHT22;8928;51.678;6.074;2022-11-20T11:02:53;3.00;99.90
17619;DHT22;8928;51.678;6.074;2022-11-20T11:05:48;3.00;99.90
17619;DHT22;8928;51.678;6.074;2022-11-20T11:08:39;2.90;99.90
17619;DHT22;8928;51.678;6.074;2022-11-20T11:11:29;2.90;99.90
17619;DHT22;8928;51.678;6.074;2022-11-20T11:14:16;2.90;99.90
17619;DHT22;8928;51.678;6.074;2022-11-20T11:17:04;2.90;99.90
17619;DHT22;8928;51.678;6.074;2022-11-20T11:19:59;2.90;99.90
17619;DHT22;8928;51.678;6.074;2022-11-20T11:22:48;2.90;99.90
17619;DHT22;8928;51.678;6.074;2022-11-20T11:25:37;2.80;99.90
17619;DHT22;8928;51.678;6.074;2022-11-20T11:28:25;2.90;99.90
17619;DHT22;8928;51.678;6.074;2022-11-20T11:31:22;2.80;99.90
17619;DHT22;8928;51.678;6.074;2022-11-20T11:34:12;2.80;99.90
17619;DHT22;8928;51.678;6.074;2022-11-20T11:37:01;2.90;99.90
17619;DHT22;8928;51.678;6.074;2022-11-20T11:39:50;3.00;99.90
17619;DHT22;8928;51.678;6.074;2022-11-20T11:42:42;3.10;99.90
17619;DHT22;8928;51.678;6.074;2022-11-20T11:45:29;3.20;99.90
17619;DHT22;8928;51.678;6.074;2022-11-20T11:48:16;3.30;99.90
17619;DHT22;8928;51.678;6.074;2022-11-20T11:51:08;3.30;99.90
17619;DHT22;8928;51.678;6.074;2022-11-20T11:53:57;3.40;99.90
17619;DHT22;8928;51.678;6.074;2022-11-20T11:56:45;3.40;99.90
17619;DHT22;8928;51.678;6.074;2022-11-20T11:59:47;3.50;99.90
17619;DHT22;8928;51.678;6.074;2022-11-20T12:02:40;3.50;99.90
17619;DHT22;8928;51.678;6.074;2022-11-20T12:05:38;3.70;99.90
17619;DHT22;8928;51.678;6.074;2022-11-20T12:08:32;3.80;99.90
17619;DHT22;8928;51.678;6.074;2022-11-20T12:11:30;3.80;99.90
17619;DHT22;8928;51.678;6.074;2022-11-20T12:14:22;3.80;99.90
17619;DHT22;8928;51.678;6.074;2022-11-20T12:17:14;3.70;99.90
17619;DHT22;8928;51.678;6.074;2022-11-20T12:20:01;3.70;99.90
17619;DHT22;8928;51.678;6.074;2022-11-20T12:22:54;3.60;99.90
17619;DHT22;8928;51.678;6.074;2022-11-20T12:25:44;3.60;99.90
17619;DHT22;8928;51.678;6.074;2022-11-20T12:28:44;3.40;99.90
17619;DHT22;8928;51.678;6.074;2022-11-20T12:31:58;3.40;99.90
17619;DHT22;8928;51.678;6.074;2022-11-20T12:34:55;3.40;99.90
17619;DHT22;8928;51.678;6.074;2022-11-20T12:37:50;3.40;99.90
17619;DHT22;8928;51.678;6.074;2022-11-20T12:40:45;3.50;99.90
17619;DHT22;8928;51.678;6.074;2022-11-20T12:43:41;3.60;99.90
17619;DHT22;8928;51.678;6.074;2022-11-20T12:46:51;3.70;99.90
17619;DHT22;8928;51.678;6.074;2022-11-20T12:49:50;3.70;99.90
17619;DHT22;8928;51.678;6.074;2022-11-20T12:52:47;3.80;99.90
17619;DHT22;8928;51.678;6.074;2022-11-20T12:55:42;3.70;99.90
17619;DHT22;8928;51.678;6.074;2022-11-20T12:58:37;3.70;99.90
17619;DHT22;8928;51.678;6.074;2022-11-20T13:01:32;3.60;99.90
17619;DHT22;8928;51.678;6.074;2022-11-20T13:04:47;3.50;99.90
17619;DHT22;8928;51.678;6.074;2022-11-20T13:07:38;3.50;99.90
17619;DHT22;8928;51.678;6.074;2022-11-20T13:10:33;3.40;99.90
17619;DHT22;8928;51.678;6.074;2022-11-20T13:13:25;3.40;99.90
17619;DHT22;8928;51.678;6.074;2022-11-20T13:16:19;3.40;99.90
17619;DHT22;8928;51.678;6.074;2022-11-20T13:19:12;3.50;99.90
17619;DHT22;8928;51.678;6.074;2022-11-20T13:22:00;3.40;99.90
17619;DHT22;8928;51.678;6.074;2022-11-20T13:24:51;3.40;99.90
17619;DHT22;8928;51.678;6.074;2022-11-20T13:27:46;3.40;99.90
17619;DHT22;8928;51.678;6.074;2022-11-20T13:30:35;3.50;99.90
17619;DHT22;8928;51.678;6.074;2022-11-20T13:33:25;3.50;99.90
17619;DHT22;8928;51.678;6.074;2022-11-20T13:36:22;3.50;99.90
17619;DHT22;8928;51.678;6.074;2022-11-20T13:39:09;3.50;99.90
17619;DHT22;8928;51.678;6.074;2022-11-20T13:41:59;3.50;99.90
17619;DHT22;8928;51.678;6.074;2022-11-20T13:44:50;3.50;99.90
17619;DHT22;8928;51.678;6.074;2022-11-20T13:47:38;3.60;99.90
17619;DHT22;8928;51.678;6.074;2022-11-20T13:50:46;3.60;99.90
17619;DHT22;8928;51.678;6.074;2022-11-20T13:54:20;3.60;99.90
17619;DHT22;8928;51.678;6.074;2022-11-20T13:57:27;3.70;99.90
17619;DHT22;8928;51.678;6.074;2022-11-20T14:00:18;3.80;99.90
17619;DHT22;8928;51.678;6.074;2022-11-20T14:03:17;3.80;99.90
17619;DHT22;8928;51.678;6.074;2022-11-20T14:06:10;3.80;99.90
17619;DHT22;8928;51.678;6.074;2022-11-20T14:09:00;3.80;99.90
17619;DHT22;8928;51.678;6.074;2022-11-20T14:11:47;3.80;99.90
17619;DHT22;8928;51.678;6.074;2022-11-20T14:14:35;3.80;99.90
17619;DHT22;8928;51.678;6.074;2022-11-20T14:17:28;3.70;99.90
17619;DHT22;8928;51.678;6.074;2022-11-20T14:20:16;3.70;99.90
17619;DHT22;8928;51.678;6.074;2022-11-20T14:23:10;3.70;99.90
17619;DHT22;8928;51.678;6.074;2022-11-20T14:25:57;3.60;99.90
17619;DHT22;8928;51.678;6.074;2022-11-20T14:28:48;3.60;99.90
17619;DHT22;8928;51.678;6.074;2022-11-20T14:31:37;3.60;99.90
17619;DHT22;8928;51.678;6.074;2022-11-20T14:34:27;3.60;99.90
17619;DHT22;8928;51.678;6.074;2022-11-20T14:37:19;3.60;99.90
17619;DHT22;8928;51.678;6.074;2022-11-20T14:40:23;3.60;99.90
17619;DHT22;8928;51.678;6.074;2022-11-20T14:43:22;3.60;99.90
17619;DHT22;8928;51.678;6.074;2022-11-20T14:46:10;3.70;99.90
17619;DHT22;8928;51.678;6.074;2022-11-20T14:49:01;3.70;99.90
17619;DHT22;8928;51.678;6.074;2022-11-20T14:51:58;3.70;99.90
17619;DHT22;8928;51.678;6.074;2022-11-20T14:54:47;3.70;99.90
17619;DHT22;8928;51.678;6.074;2022-11-20T14:57:35;3.60;99.90
17619;DHT22;8928;51.678;6.074;2022-11-20T15:00:24;3.70;99.90
17619;DHT22;8928;51.678;6.074;2022-11-20T15:03:15;3.70;99.90
17619;DHT22;8928;51.678;6.074;2022-11-20T15:06:04;3.70;99.90
17619;DHT22;8928;51.678;6.074;2022-11-20T15:08:52;3.70;99.90
17619;DHT22;8928;51.678;6.074;2022-11-20T15:11:52;3.70;99.90
17619;DHT22;8928;51.678;6.074;2022-11-20T15:14:39;3.70;99.90
17619;DHT22;8928;51.678;6.074;2022-11-20T15:17:26;3.70;99.90
17619;DHT22;8928;51.678;6.074;2022-11-20T15:20:16;3.70;99.90
17619;DHT22;8928;51.678;6.074;2022-11-20T15:23:09;3.70;99.90
17619;DHT22;8928;51.678;6.074;2022-11-20T15:25:57;3.70;99.90
17619;DHT22;8928;51.678;6.074;2022-11-20T15:28:45;3.70;99.90
17619;DHT22;8928;51.678;6.074;2022-11-20T15:31:33;3.70;99.90
17619;DHT22;8928;51.678;6.074;2022-11-20T15:34:20;3.70;99.90
17619;DHT22;8928;51.678;6.074;2022-11-20T15:37:07;3.70;99.90
17619;DHT22;8928;51.678;6.074;2022-11-20T15:39:56;3.70;99.90
17619;DHT22;8928;51.678;6.074;2022-11-20T15:42:43;3.60;99.90
17619;DHT22;8928;51.678;6.074;2022-11-20T15:45:49;3.60;99.90
17619;DHT22;8928;51.678;6.074;2022-11-20T15:48:39;3.70;99.90
17619;DHT22;8928;51.678;6.074;2022-11-20T15:51:27;3.70;99.90
17619;DHT22;8928;51.678;6.074;2022-11-20T15:54:18;3.70;99.90
17619;DHT22;8928;51.678;6.074;2022-11-20T15:57:07;3.60;99.90
17619;DHT22;8928;51.678;6.074;2022-11-20T15:59:55;3.60;99.90
17619;DHT22;8928;51.678;6.074;2022-11-20T16:02:42;3.60;99.90
17619;DHT22;8928;51.678;6.074;2022-11-20T16:05:29;3.70;99.90
17619;DHT22;8928;51.678;6.074;2022-11-20T16:08:16;3.70;99.90
17619;DHT22;8928;51.678;6.074;2022-11-20T16:11:03;3.70;99.90
17619;DHT22;8928;51.678;6.074;2022-11-20T16:13:52;3.70;99.90
17619;DHT22;8928;51.678;6.074;2022-11-20T16:16:56;3.80;99.90
17619;DHT22;8928;51.678;6.074;2022-11-20T16:19:43;3.70;99.90
17619;DHT22;8928;51.678;6.074;2022-11-20T16:22:30;3.80;99.90
17619;DHT22;8928;51.678;6.074;2022-11-20T16:25:17;3.80;99.90
17619;DHT22;8928;51.678;6.074;2022-11-20T16:28:05;3.70;99.90
17619;DHT22;8928;51.678;6.074;2022-11-20T16:30:53;3.70;99.90
17619;DHT22;8928;51.678;6.074;2022-11-20T16:33:40;3.80;99.90
17619;DHT22;8928;51.678;6.074;2022-11-20T16:36:28;3.80;99.90
17619;DHT22;8928;51.678;6.074;2022-11-20T16:39:17;3.80;99.90
17619;DHT22;8928;51.678;6.074;2022-11-20T16:42:04;3.80;99.90
17619;DHT22;8928;51.678;6.074;2022-11-20T16:44:51;3.80;99.90
17619;DHT22;8928;51.678;6.074;2022-11-20T16:47:39;3.80;99.90
17619;DHT22;8928;51.678;6.074;2022-11-20T16:50:26;3.90;99.90
17619;DHT22;8928;51.678;6.074;2022-11-20T16:53:14;3.90;99.90
17619;DHT22;8928;51.678;6.074;2022-11-20T16:56:08;3.90;99.90
17619;DHT22;8928;51.678;6.074;2022-11-20T16:58:57;3.90;99.90
17619;DHT22;8928;51.678;6.074;2022-11-20T17:01:44;4.00;99.90
17619;DHT22;8928;51.678;6.074;2022-11-20T17:04:32;4.00;99.90
17619;DHT22;8928;51.678;6.074;2022-11-20T17:07:19;4.00;99.90
17619;DHT22;8928;51.678;6.074;2022-11-20T17:10:07;4.00;99.90
17619;DHT22;8928;51.678;6.074;2022-11-20T17:12:54;4.00;99.90
17619;DHT22;8928;51.678;6.074;2022-11-20T17:15:41;4.00;99.90
17619;DHT22;8928;51.678;6.074;2022-11-20T17:18:28;4.00;99.90
17619;DHT22;8928;51.678;6.074;2022-11-20T17:21:17;4.00;99.90
17619;DHT22;8928;51.678;6.074;2022-11-20T17:24:06;4.00;99.90
17619;DHT22;8928;51.678;6.074;2022-11-20T17:26:54;4.10;99.90
17619;DHT22;8928;51.678;6.074;2022-11-20T17:29:41;4.10;99.90
17619;DHT22;8928;51.678;6.074;2022-11-20T17:32:28;4.10;99.90
17619;DHT22;8928;51.678;6.074;2022-11-20T17:35:15;4.10;99.90
17619;DHT22;8928;51.678;6.074;2022-11-20T17:38:03;4.10;99.90
17619;DHT22;8928;51.678;6.074;2022-11-20T17:40:50;4.10;99.90
17619;DHT22;8928;51.678;6.074;2022-11-20T17:43:38;4.10;99.90
17619;DHT22;8928;51.678;6.074;2022-11-20T17:46:26;4.10;99.90
17619;DHT22;8928;51.678;6.074;2022-11-20T17:49:14;4.10;99.90
17619;DHT22;8928;51.678;6.074;2022-11-20T17:52:01;4.20;99.90
17619;DHT22;8928;51.678;6.074;2022-11-20T17:54:49;4.20;99.90
17619;DHT22;8928;51.678;6.074;2022-11-20T17:57:40;4.20;99.90
17619;DHT22;8928;51.678;6.074;2022-11-20T18:00:38;4.20;99.90
17619;DHT22;8928;51.678;6.074;2022-11-20T18:03:25;4.20;99.90
17619;DHT22;8928;51.678;6.074;2022-11-20T18:06:14;4.30;99.90
17619;DHT22;8928;51.678;6.074;2022-11-20T18:09:02;4.30;99.90
17619;DHT22;8928;51.678;6.074;2022-11-20T18:11:51;4.40;99.90
17619;DHT22;8928;51.678;6.074;2022-11-20T18:14:38;4.40;99.90
17619;DHT22;8928;51.678;6.074;2022-11-20T18:17:26;4.40;99.90
17619;DHT22;8928;51.678;6.074;2022-11-20T18:20:13;4.40;99.90